sensor_id;sensor_type;location;lat;lon;timestamp;temperature;humidity
22235;DHT22;11286;45.596;5.284;2023-02-15T00:01:50;8.60;99.90
22235;DHT22;11286;45.596;5.284;2023-02-15T00:04:18;8.50;99.90
22235;DHT22;11286;45.596;5.284;2023-02-15T00:06:44;8.50;99.90
22235;DHT22;11286;45.596;5.284;2023-02-15T00:09:10;8.40;99.90
22235;DHT22;11286;45.596;5.284;2023-02-15T00:11:36;8.40;99.90
22235;DHT22;11286;45.596;5.284;2023-02-15T00:14:15;8.40;99.90
22235;DHT22;11286;45.596;5.284;2023-02-15T00:16:42;8.00;99.90
22235;DHT22;11286;45.596;5.284;2023-02-15T00:19:09;8.00;99.90
22235;DHT22;11286;45.596;5.284;2023-02-15T00:21:37;8.00;99.90
22235;DHT22;11286;45.596;5.284;2023-02-15T00:24:05;8.00;99.90
22235;DHT22;11286;45.596;5.284;2023-02-15T00:26:31;7.80;99.90
22235;DHT22;11286;45.596;5.284;2023-02-15T00:28:58;7.70;99.90
22235;DHT22;11286;45.596;5.284;2023-02-15T00:31:25;7.40;99.90
22235;DHT22;11286;45.596;5.284;2023-02-15T00:33:50;6.70;99.90
22235;DHT22;11286;45.596;5.284;2023-02-15T00:36:16;6.40;99.90
22235;DHT22;11286;45.596;5.284;2023-02-15T00:38:42;6.50;99.90
22235;DHT22;11286;45.596;5.284;2023-02-15T00:41:08;6.60;99.90
22235;DHT22;11286;45.596;5.284;2023-02-15T00:43:35;6.30;99.90
22235;DHT22;11286;45.596;5.284;2023-02-15T00:46:02;6.20;99.90
22235;DHT22;11286;45.596;5.284;2023-02-15T00:48:28;6.20;99.90
22235;DHT22;11286;45.596;5.284;2023-02-15T00:50:57;6.40;99.90
22235;DHT22;11286;45.596;5.284;2023-02-15T00:53:26;6.10;99.90
22235;DHT22;11286;45.596;5.284;2023-02-15T00:55:52;6.40;99.90
22235;DHT22;11286;45.596;5.284;2023-02-15T00:58:18;6.40;99.90
22235;DHT22;11286;45.596;5.284;2023-02-15T01:00:46;6.20;99.90
22235;DHT22;11286;45.596;5.284;2023-02-15T01:03:13;6.10;99.90
22235;DHT22;11286;45.596;5.284;2023-02-15T01:05:39;5.90;99.90
22235;DHT22;11286;45.596;5.284;2023-02-15T01:08:05;6.10;99.90
22235;DHT22;11286;45.596;5.284;2023-02-15T01:10:31;6.20;99.90
22235;DHT22;11286;45.596;5.284;2023-02-15T01:12:57;6.40;99.90
22235;DHT22;11286;45.596;5.284;2023-02-15T01:15:23;6.40;99.90
22235;DHT22;11286;45.596;5.284;2023-02-15T01:17:49;6.00;99.90
22235;DHT22;11286;45.596;5.284;2023-02-15T01:20:19;6.00;99.90
22235;DHT22;11286;45.596;5.284;2023-02-15T01:22:45;6.10;99.90
22235;DHT22;11286;45.596;5.284;2023-02-15T01:25:11;6.50;99.90
22235;DHT22;11286;45.596;5.284;2023-02-15T01:27:36;6.20;99.90
22235;DHT22;11286;45.596;5.284;2023-02-15T01:30:02;6.10;99.90
22235;DHT22;11286;45.596;5.284;2023-02-15T01:32:30;5.90;99.90
22235;DHT22;11286;45.596;5.284;2023-02-15T01:34:56;5.90;99.90
22235;DHT22;11286;45.596;5.284;2023-02-15T01:37:21;5.70;99.90
22235;DHT22;11286;45.596;5.284;2023-02-15T01:39:47;5.80;99.90
22235;DHT22;11286;45.596;5.284;2023-02-15T01:42:13;5.80;99.90
22235;DHT22;11286;45.596;5.284;2023-02-15T01:45:00;5.80;99.90
22235;DHT22;11286;45.596;5.284;2023-02-15T01:47:52;5.80;99.90
22235;DHT22;11286;45.596;5.284;2023-02-15T01:50:29;5.80;99.90
22235;DHT22;11286;45.596;5.284;2023-02-15T01:52:56;5.80;99.90
22235;DHT22;11286;45.596;5.284;2023-02-15T01:55:26;5.70;99.90
22235;DHT22;11286;45.596;5.284;2023-02-15T01:57:54;5.70;99.90
22235;DHT22;11286;45.596;5.284;2023-02-15T02:00:20;5.70;99.90
22235;DHT22;11286;45.596;5.284;2023-02-15T02:02:50;5.50;99.90
22235;DHT22;11286;45.596;5.284;2023-02-15T02:05:16;5.60;99.90
22235;DHT22;11286;45.596;5.284;2023-02-15T02:07:44;5.50;99.90
22235;DHT22;11286;45.596;5.284;2023-02-15T02:10:14;5.70;99.90
22235;DHT22;11286;45.596;5.284;2023-02-15T02:12:42;5.70;99.90
22235;DHT22;11286;45.596;5.284;2023-02-15T02:15:09;5.70;99.90
22235;DHT22;11286;45.596;5.284;2023-02-15T02:18:12;5.60;99.90
22235;DHT22;11286;45.596;5.284;2023-02-15T02:34:29;5.30;99.90
22235;DHT22;11286;45.596;5.284;2023-02-15T02:37:16;5.60;99.90
22235;DHT22;11286;45.596;5.284;2023-02-15T02:42:44;6.10;99.90
22235;DHT22;11286;45.596;5.284;2023-02-15T02:45:24;5.90;99.90
22235;DHT22;11286;45.596;5.284;2023-02-15T02:48:14;5.50;99.90
22235;DHT22;11286;45.596;5.284;2023-02-15T02:50:41;5.40;99.90
22235;DHT22;11286;45.596;5.284;2023-02-15T02:53:08;5.50;99.90
22235;DHT22;11286;45.596;5.284;2023-02-15T02:55:46;5.40;99.90
22235;DHT22;11286;45.596;5.284;2023-02-15T02:58:31;5.30;99.90
22235;DHT22;11286;45.596;5.284;2023-02-15T03:01:09;5.60;99.90
22235;DHT22;11286;45.596;5.284;2023-02-15T03:03:45;5.30;99.90
22235;DHT22;11286;45.596;5.284;2023-02-15T03:06:26;5.20;99.90
22235;DHT22;11286;45.596;5.284;2023-02-15T03:09:01;5.30;99.90
22235;DHT22;11286;45.596;5.284;2023-02-15T03:11:29;5.30;99.90
22235;DHT22;11286;45.596;5.284;2023-02-15T03:13:55;5.30;99.90
22235;DHT22;11286;45.596;5.284;2023-02-15T03:16:21;5.30;99.90
22235;DHT22;11286;45.596;5.284;2023-02-15T03:19:17;5.10;99.90
22235;DHT22;11286;45.596;5.284;2023-02-15T03:21:47;5.30;99.90
22235;DHT22;11286;45.596;5.284;2023-02-15T03:24:27;5.60;99.90
22235;DHT22;11286;45.596;5.284;2023-02-15T03:26:54;5.70;99.90
22235;DHT22;11286;45.596;5.284;2023-02-15T03:29:25;5.80;99.90
22235;DHT22;11286;45.596;5.284;2023-02-15T03:31:56;5.90;99.90
22235;DHT22;11286;45.596;5.284;2023-02-15T03:34:23;6.00;99.90
22235;DHT22;11286;45.596;5.284;2023-02-15T03:39:27;5.80;99.90
22235;DHT22;11286;45.596;5.284;2023-02-15T03:44:31;5.60;99.90
22235;DHT22;11286;45.596;5.284;2023-02-15T03:47:04;5.80;99.90
22235;DHT22;11286;45.596;5.284;2023-02-15T03:49:54;5.90;99.90
22235;DHT22;11286;45.596;5.284;2023-02-15T03:52:21;6.00;99.90
22235;DHT22;11286;45.596;5.284;2023-02-15T03:54:49;6.20;99.90
22235;DHT22;11286;45.596;5.284;2023-02-15T04:00:14;6.00;99.90
22235;DHT22;11286;45.596;5.284;2023-02-15T04:03:09;6.00;99.90
22235;DHT22;11286;45.596;5.284;2023-02-15T04:05:36;5.90;99.90
22235;DHT22;11286;45.596;5.284;2023-02-15T04:08:02;5.70;99.90
22235;DHT22;11286;45.596;5.284;2023-02-15T04:10:28;5.70;99.90
22235;DHT22;11286;45.596;5.284;2023-02-15T04:13:12;5.50;99.90
22235;DHT22;11286;45.596;5.284;2023-02-15T04:15:37;5.20;99.90
22235;DHT22;11286;45.596;5.284;2023-02-15T04:18:21;5.40;99.90
22235;DHT22;11286;45.596;5.284;2023-02-15T04:20:53;5.20;99.90
22235;DHT22;11286;45.596;5.284;2023-02-15T04:23:37;5.50;99.90
22235;DHT22;11286;45.596;5.284;2023-02-15T04:26:21;5.60;99.90
22235;DHT22;11286;45.596;5.284;2023-02-15T04:28:46;5.80;99.90
22235;DHT22;11286;45.596;5.284;2023-02-15T04:31:12;5.60;99.90
22235;DHT22;11286;45.596;5.284;2023-02-15T04:33:38;5.70;99.90
22235;DHT22;11286;45.596;5.284;2023-02-15T04:36:04;5.60;99.90
22235;DHT22;11286;45.596;5.284;2023-02-15T04:38:30;5.50;99.90
22235;DHT22;11286;45.596;5.284;2023-02-15T04:40:55;5.60;99.90
22235;DHT22;11286;45.596;5.284;2023-02-15T04:43:21;5.60;99.90
22235;DHT22;11286;45.596;5.284;2023-02-15T04:45:50;5.70;99.90
22235;DHT22;11286;45.596;5.284;2023-02-15T04:48:17;5.90;99.90
22235;DHT22;11286;45.596;5.284;2023-02-15T04:50:44;5.60;99.90
22235;DHT22;11286;45.596;5.284;2023-02-15T04:53:10;5.60;99.90
22235;DHT22;11286;45.596;5.284;2023-02-15T04:55:35;5.70;99.90
22235;DHT22;11286;45.596;5.284;2023-02-15T04:58:01;5.60;99.90
22235;DHT22;11286;45.596;5.284;2023-02-15T05:00:27;5.60;99.90
22235;DHT22;11286;45.596;5.284;2023-02-15T05:02:53;5.50;99.90
22235;DHT22;11286;45.596;5.284;2023-02-15T05:05:18;5.60;99.90
22235;DHT22;11286;45.596;5.284;2023-02-15T05:07:44;5.80;99.90
22235;DHT22;11286;45.596;5.284;2023-02-15T05:10:10;5.60;99.90
22235;DHT22;11286;45.596;5.284;2023-02-15T05:12:36;5.70;99.90
22235;DHT22;11286;45.596;5.284;2023-02-15T05:15:01;5.70;99.90
22235;DHT22;11286;45.596;5.284;2023-02-15T05:17:27;5.70;99.90
22235;DHT22;11286;45.596;5.284;2023-02-15T05:19:52;5.50;99.90
22235;DHT22;11286;45.596;5.284;2023-02-15T05:22:18;5.50;99.90
22235;DHT22;11286;45.596;5.284;2023-02-15T05:24:44;5.70;99.90
22235;DHT22;11286;45.596;5.284;2023-02-15T05:27:28;5.40;99.90
22235;DHT22;11286;45.596;5.284;2023-02-15T05:30:12;5.50;99.90
22235;DHT22;11286;45.596;5.284;2023-02-15T05:32:38;5.50;99.90
22235;DHT22;11286;45.596;5.284;2023-02-15T05:35:05;5.50;99.90
22235;DHT22;11286;45.596;5.284;2023-02-15T05:37:31;5.50;99.90
22235;DHT22;11286;45.596;5.284;2023-02-15T05:39:57;5.50;99.90
22235;DHT22;11286;45.596;5.284;2023-02-15T05:42:22;5.50;99.90
22235;DHT22;11286;45.596;5.284;2023-02-15T05:44:48;5.40;99.90
22235;DHT22;11286;45.596;5.284;2023-02-15T05:47:13;5.30;99.90
22235;DHT22;11286;45.596;5.284;2023-02-15T05:49:39;5.30;99.90
22235;DHT22;11286;45.596;5.284;2023-02-15T05:52:04;5.40;99.90
22235;DHT22;11286;45.596;5.284;2023-02-15T05:54:30;5.30;99.90
22235;DHT22;11286;45.596;5.284;2023-02-15T05:56:56;5.20;99.90
22235;DHT22;11286;45.596;5.284;2023-02-15T05:59:22;5.30;99.90
22235;DHT22;11286;45.596;5.284;2023-02-15T06:01:47;5.50;99.90
22235;DHT22;11286;45.596;5.284;2023-02-15T06:04:13;5.30;99.90
22235;DHT22;11286;45.596;5.284;2023-02-15T06:06:39;5.40;99.90
22235;DHT22;11286;45.596;5.284;2023-02-15T06:09:04;5.50;99.90
22235;DHT22;11286;45.596;5.284;2023-02-15T06:11:30;5.20;99.90
22235;DHT22;11286;45.596;5.284;2023-02-15T06:13:56;5.50;99.90
22235;DHT22;11286;45.596;5.284;2023-02-15T06:16:22;5.40;99.90
22235;DHT22;11286;45.596;5.284;2023-02-15T06:18:47;5.50;99.90
22235;DHT22;11286;45.596;5.284;2023-02-15T06:21:13;5.10;99.90
22235;DHT22;11286;45.596;5.284;2023-02-15T06:23:39;5.20;99.90
22235;DHT22;11286;45.596;5.284;2023-02-15T06:26:04;5.60;99.90
22235;DHT22;11286;45.596;5.284;2023-02-15T06:28:30;5.50;99.90
22235;DHT22;11286;45.596;5.284;2023-02-15T06:30:56;5.30;99.90
22235;DHT22;11286;45.596;5.284;2023-02-15T06:33:22;5.40;99.90
22235;DHT22;11286;45.596;5.284;2023-02-15T06:35:48;5.20;99.90
22235;DHT22;11286;45.596;5.284;2023-02-15T06:38:14;5.00;99.90
22235;DHT22;11286;45.596;5.284;2023-02-15T06:40:39;5.10;99.90
22235;DHT22;11286;45.596;5.284;2023-02-15T06:43:05;5.50;99.90
22235;DHT22;11286;45.596;5.284;2023-02-15T06:45:30;5.20;99.90
22235;DHT22;11286;45.596;5.284;2023-02-15T06:47:56;5.30;99.90
22235;DHT22;11286;45.596;5.284;2023-02-15T06:50:21;5.50;99.90
22235;DHT22;11286;45.596;5.284;2023-02-15T06:52:47;5.50;99.90
22235;DHT22;11286;45.596;5.284;2023-02-15T06:55:13;5.30;99.90
22235;DHT22;11286;45.596;5.284;2023-02-15T06:57:38;5.20;99.90
22235;DHT22;11286;45.596;5.284;2023-02-15T07:00:04;5.40;99.90
22235;DHT22;11286;45.596;5.284;2023-02-15T07:02:31;5.40;99.90
22235;DHT22;11286;45.596;5.284;2023-02-15T07:04:57;5.40;99.90
22235;DHT22;11286;45.596;5.284;2023-02-15T07:07:22;5.50;99.90
22235;DHT22;11286;45.596;5.284;2023-02-15T07:09:48;5.40;99.90
22235;DHT22;11286;45.596;5.284;2023-02-15T07:12:14;5.40;99.90
22235;DHT22;11286;45.596;5.284;2023-02-15T07:14:58;5.40;99.90
22235;DHT22;11286;45.596;5.284;2023-02-15T07:17:24;5.40;99.90
22235;DHT22;11286;45.596;5.284;2023-02-15T07:19:54;5.70;99.90
22235;DHT22;11286;45.596;5.284;2023-02-15T07:22:19;5.60;99.90
22235;DHT22;11286;45.596;5.284;2023-02-15T07:24:45;5.50;99.90
22235;DHT22;11286;45.596;5.284;2023-02-15T07:27:10;5.50;99.90
22235;DHT22;11286;45.596;5.284;2023-02-15T07:29:36;5.60;99.90
22235;DHT22;11286;45.596;5.284;2023-02-15T07:32:02;5.70;99.90
22235;DHT22;11286;45.596;5.284;2023-02-15T07:34:27;5.80;99.90
22235;DHT22;11286;45.596;5.284;2023-02-15T07:36:53;5.90;99.90
22235;DHT22;11286;45.596;5.284;2023-02-15T07:39:19;5.90;99.90
22235;DHT22;11286;45.596;5.284;2023-02-15T07:41:45;6.00;99.90
22235;DHT22;11286;45.596;5.284;2023-02-15T07:44:14;6.10;99.90
22235;DHT22;11286;45.596;5.284;2023-02-15T07:46:40;6.10;99.90
22235;DHT22;11286;45.596;5.284;2023-02-15T07:49:06;6.20;99.90
22235;DHT22;11286;45.596;5.284;2023-02-15T07:51:31;6.30;99.90
22235;DHT22;11286;45.596;5.284;2023-02-15T07:53:57;6.30;99.90
22235;DHT22;11286;45.596;5.284;2023-02-15T07:56:22;6.30;99.90
22235;DHT22;11286;45.596;5.284;2023-02-15T07:58:48;6.50;99.90
22235;DHT22;11286;45.596;5.284;2023-02-15T08:01:30;6.60;99.90
22235;DHT22;11286;45.596;5.284;2023-02-15T08:03:57;6.60;99.90
22235;DHT22;11286;45.596;5.284;2023-02-15T08:06:28;6.80;99.90
22235;DHT22;11286;45.596;5.284;2023-02-15T08:08:54;6.80;99.90
22235;DHT22;11286;45.596;5.284;2023-02-15T08:11:22;7.30;99.90
22235;DHT22;11286;45.596;5.284;2023-02-15T08:14:11;7.80;99.90
22235;DHT22;11286;45.596;5.284;2023-02-15T08:16:51;9.40;99.90
22235;DHT22;11286;45.596;5.284;2023-02-15T08:19:18;11.20;99.90
22235;DHT22;11286;45.596;5.284;2023-02-15T08:21:46;13.70;99.90
22235;DHT22;11286;45.596;5.284;2023-02-15T08:24:14;16.00;99.90
22235;DHT22;11286;45.596;5.284;2023-02-15T08:26:41;17.30;99.90
22235;DHT22;11286;45.596;5.284;2023-02-15T08:29:08;18.10;99.90
22235;DHT22;11286;45.596;5.284;2023-02-15T08:31:35;19.40;99.90
22235;DHT22;11286;45.596;5.284;2023-02-15T08:34:02;20.20;99.90
22235;DHT22;11286;45.596;5.284;2023-02-15T08:36:30;21.20;99.90
22235;DHT22;11286;45.596;5.284;2023-02-15T08:39:01;21.60;99.90
22235;DHT22;11286;45.596;5.284;2023-02-15T08:41:35;21.30;99.90
22235;DHT22;11286;45.596;5.284;2023-02-15T08:44:04;21.70;99.90
22235;DHT22;11286;45.596;5.284;2023-02-15T08:46:32;22.30;99.90
22235;DHT22;11286;45.596;5.284;2023-02-15T08:48:58;23.20;99.90
22235;DHT22;11286;45.596;5.284;2023-02-15T08:51:27;23.80;99.90
22235;DHT22;11286;45.596;5.284;2023-02-15T08:53:56;23.90;99.90
22235;DHT22;11286;45.596;5.284;2023-02-15T08:56:27;24.40;99.90
22235;DHT22;11286;45.596;5.284;2023-02-15T08:58:54;23.60;99.90
22235;DHT22;11286;45.596;5.284;2023-02-15T09:01:22;23.00;99.90
22235;DHT22;11286;45.596;5.284;2023-02-15T09:03:50;23.70;99.90
22235;DHT22;11286;45.596;5.284;2023-02-15T09:06:19;22.40;99.90
22235;DHT22;11286;45.596;5.284;2023-02-15T09:08:45;21.70;99.90
22235;DHT22;11286;45.596;5.284;2023-02-15T09:11:16;21.90;99.90
22235;DHT22;11286;45.596;5.284;2023-02-15T09:13:48;22.30;99.90
22235;DHT22;11286;45.596;5.284;2023-02-15T09:16:15;23.10;99.90
22235;DHT22;11286;45.596;5.284;2023-02-15T09:18:42;22.80;99.90
22235;DHT22;11286;45.596;5.284;2023-02-15T09:21:14;23.60;99.90
22235;DHT22;11286;45.596;5.284;2023-02-15T09:23:44;23.90;99.90
22235;DHT22;11286;45.596;5.284;2023-02-15T09:26:16;24.00;99.90
22235;DHT22;11286;45.596;5.284;2023-02-15T09:28:42;24.30;99.90
22235;DHT22;11286;45.596;5.284;2023-02-15T09:31:16;24.80;99.90
22235;DHT22;11286;45.596;5.284;2023-02-15T09:33:43;26.10;99.90
22235;DHT22;11286;45.596;5.284;2023-02-15T09:36:31;27.20;99.90
22235;DHT22;11286;45.596;5.284;2023-02-15T09:39:16;26.70;99.90
22235;DHT22;11286;45.596;5.284;2023-02-15T09:56:15;27.50;99.90
22235;DHT22;11286;45.596;5.284;2023-02-15T10:04:13;27.70;99.90
22235;DHT22;11286;45.596;5.284;2023-02-15T10:14:51;27.80;99.90
22235;DHT22;11286;45.596;5.284;2023-02-15T10:25:17;29.80;99.90
22235;DHT22;11286;45.596;5.284;2023-02-15T10:27:48;28.30;99.90
22235;DHT22;11286;45.596;5.284;2023-02-15T10:30:33;28.10;99.90
22235;DHT22;11286;45.596;5.284;2023-02-15T10:33:03;26.90;99.90
22235;DHT22;11286;45.596;5.284;2023-02-15T10:38:08;29.30;99.90
22235;DHT22;11286;45.596;5.284;2023-02-15T10:40:46;29.80;99.90
22235;DHT22;11286;45.596;5.284;2023-02-15T10:46:23;32.60;99.90
22235;DHT22;11286;45.596;5.284;2023-02-15T10:54:31;30.10;99.90
22235;DHT22;11286;45.596;5.284;2023-02-15T10:57:49;30.40;99.90
22235;DHT22;11286;45.596;5.284;2023-02-15T11:00:03;33.00;99.90
22235;DHT22;11286;45.596;5.284;2023-02-15T11:07:48;29.50;99.90
22235;DHT22;11286;45.596;5.284;2023-02-15T11:10:34;29.90;99.90
22235;DHT22;11286;45.596;5.284;2023-02-15T11:13:13;28.50;99.90
22235;DHT22;11286;45.596;5.284;2023-02-15T11:15:47;30.00;99.90
22235;DHT22;11286;45.596;5.284;2023-02-15T11:18:26;30.30;99.90
22235;DHT22;11286;45.596;5.284;2023-02-15T11:21:13;31.40;99.90
22235;DHT22;11286;45.596;5.284;2023-02-15T11:23:42;29.60;99.90
22235;DHT22;11286;45.596;5.284;2023-02-15T11:26:33;29.50;99.90
22235;DHT22;11286;45.596;5.284;2023-02-15T11:29:06;31.00;99.90
22235;DHT22;11286;45.596;5.284;2023-02-15T11:31:46;31.10;99.90
22235;DHT22;11286;45.596;5.284;2023-02-15T11:34:50;31.40;99.90
22235;DHT22;11286;45.596;5.284;2023-02-15T11:37:12;31.60;99.90
22235;DHT22;11286;45.596;5.284;2023-02-15T11:39:40;32.10;99.90
22235;DHT22;11286;45.596;5.284;2023-02-15T11:42:14;30.20;99.90
22235;DHT22;11286;45.596;5.284;2023-02-15T11:45:02;30.90;99.90
22235;DHT22;11286;45.596;5.284;2023-02-15T11:47:29;31.40;99.90
22235;DHT22;11286;45.596;5.284;2023-02-15T11:49:55;30.10;99.90
22235;DHT22;11286;45.596;5.284;2023-02-15T11:52:21;29.10;99.90
22235;DHT22;11286;45.596;5.284;2023-02-15T11:54:49;28.00;99.90
22235;DHT22;11286;45.596;5.284;2023-02-15T11:57:33;26.90;99.90
22235;DHT22;11286;45.596;5.284;2023-02-15T12:00:14;27.50;99.90
22235;DHT22;11286;45.596;5.284;2023-02-15T12:02:46;26.90;99.90
22235;DHT22;11286;45.596;5.284;2023-02-15T12:05:18;28.50;99.90
22235;DHT22;11286;45.596;5.284;2023-02-15T12:07:48;29.60;99.90
22235;DHT22;11286;45.596;5.284;2023-02-15T12:10:25;29.00;99.90
22235;DHT22;11286;45.596;5.284;2023-02-15T12:13:12;30.00;99.90
22235;DHT22;11286;45.596;5.284;2023-02-15T12:15:42;29.40;99.90
22235;DHT22;11286;45.596;5.284;2023-02-15T12:20:44;30.60;99.90
22235;DHT22;11286;45.596;5.284;2023-02-15T12:23:14;28.60;99.90
22235;DHT22;11286;45.596;5.284;2023-02-15T12:25:50;27.90;99.90
22235;DHT22;11286;45.596;5.284;2023-02-15T12:28:34;27.80;99.90
22235;DHT22;11286;45.596;5.284;2023-02-15T12:31:03;27.30;99.90
22235;DHT22;11286;45.596;5.284;2023-02-15T12:33:38;26.30;99.90
22235;DHT22;11286;45.596;5.284;2023-02-15T12:36:24;26.50;99.90
22235;DHT22;11286;45.596;5.284;2023-02-15T12:39:29;25.70;99.90
22235;DHT22;11286;45.596;5.284;2023-02-15T12:44:23;27.40;99.90
22235;DHT22;11286;45.596;5.284;2023-02-15T12:47:18;26.50;99.90
22235;DHT22;11286;45.596;5.284;2023-02-15T12:49:45;24.30;99.90
22235;DHT22;11286;45.596;5.284;2023-02-15T12:52:29;24.20;99.90
22235;DHT22;11286;45.596;5.284;2023-02-15T12:54:54;24.50;99.90
22235;DHT22;11286;45.596;5.284;2023-02-15T12:57:26;26.20;99.90
22235;DHT22;11286;45.596;5.284;2023-02-15T12:59:55;27.00;99.90
22235;DHT22;11286;45.596;5.284;2023-02-15T13:02:27;27.00;99.90
22235;DHT22;11286;45.596;5.284;2023-02-15T13:04:55;27.20;99.90
22235;DHT22;11286;45.596;5.284;2023-02-15T13:07:23;27.70;99.90
22235;DHT22;11286;45.596;5.284;2023-02-15T13:09:50;29.50;99.90
22235;DHT22;11286;45.596;5.284;2023-02-15T13:12:24;28.00;99.90
22235;DHT22;11286;45.596;5.284;2023-02-15T13:14:56;27.20;99.90
22235;DHT22;11286;45.596;5.284;2023-02-15T13:17:28;24.80;99.90
22235;DHT22;11286;45.596;5.284;2023-02-15T13:19:57;23.70;99.90
22235;DHT22;11286;45.596;5.284;2023-02-15T13:22:37;23.50;99.90
22235;DHT22;11286;45.596;5.284;2023-02-15T13:25:19;23.40;99.90
22235;DHT22;11286;45.596;5.284;2023-02-15T13:27:50;23.00;99.90
22235;DHT22;11286;45.596;5.284;2023-02-15T13:30:30;23.00;99.90
22235;DHT22;11286;45.596;5.284;2023-02-15T13:33:25;22.50;99.90
22235;DHT22;11286;45.596;5.284;2023-02-15T13:42:19;21.50;99.90
22235;DHT22;11286;45.596;5.284;2023-02-15T13:51:12;20.30;99.90
22235;DHT22;11286;45.596;5.284;2023-02-15T14:01:58;20.70;99.90
22235;DHT22;11286;45.596;5.284;2023-02-15T14:04:42;21.00;99.90
22235;DHT22;11286;45.596;5.284;2023-02-15T14:07:46;20.90;99.90
22235;DHT22;11286;45.596;5.284;2023-02-15T14:15:49;21.20;99.90
22235;DHT22;11286;45.596;5.284;2023-02-15T14:20:54;20.70;99.90
22235;DHT22;11286;45.596;5.284;2023-02-15T14:32:05;21.10;99.90
22235;DHT22;11286;45.596;5.284;2023-02-15T14:37:10;21.90;99.90
22235;DHT22;11286;45.596;5.284;2023-02-15T14:47:45;21.40;99.90
22235;DHT22;11286;45.596;5.284;2023-02-15T15:01:34;20.50;99.90
22235;DHT22;11286;45.596;5.284;2023-02-15T15:04:06;21.10;99.90
22235;DHT22;11286;45.596;5.284;2023-02-15T15:06:36;21.00;99.90
22235;DHT22;11286;45.596;5.284;2023-02-15T15:14:08;21.30;99.90
22235;DHT22;11286;45.596;5.284;2023-02-15T15:19:05;20.40;99.90
22235;DHT22;11286;45.596;5.284;2023-02-15T15:36:09;19.60;99.90
22235;DHT22;11286;45.596;5.284;2023-02-15T15:39:15;19.20;99.90
22235;DHT22;11286;45.596;5.284;2023-02-15T15:42:13;18.70;99.90
22235;DHT22;11286;45.596;5.284;2023-02-15T15:47:46;19.20;99.90
22235;DHT22;11286;45.596;5.284;2023-02-15T15:50:18;19.40;99.90
22235;DHT22;11286;45.596;5.284;2023-02-15T15:52:50;19.40;99.90
22235;DHT22;11286;45.596;5.284;2023-02-15T15:55:19;19.50;99.90
22235;DHT22;11286;45.596;5.284;2023-02-15T15:57:47;19.30;99.90
22235;DHT22;11286;45.596;5.284;2023-02-15T16:00:30;19.40;99.90
22235;DHT22;11286;45.596;5.284;2023-02-15T16:02:57;19.30;99.90
22235;DHT22;11286;45.596;5.284;2023-02-15T16:05:23;19.30;99.90
22235;DHT22;11286;45.596;5.284;2023-02-15T16:07:49;18.90;99.90
22235;DHT22;11286;45.596;5.284;2023-02-15T16:10:26;18.70;99.90
22235;DHT22;11286;45.596;5.284;2023-02-15T16:12:52;18.50;99.90
22235;DHT22;11286;45.596;5.284;2023-02-15T16:15:45;18.10;99.90
22235;DHT22;11286;45.596;5.284;2023-02-15T16:18:18;18.30;99.90
22235;DHT22;11286;45.596;5.284;2023-02-15T16:20:51;18.30;99.90
22235;DHT22;11286;45.596;5.284;2023-02-15T16:23:43;18.00;99.90
22235;DHT22;11286;45.596;5.284;2023-02-15T16:29:27;16.90;99.90
22235;DHT22;11286;45.596;5.284;2023-02-15T16:32:25;16.60;99.90
22235;DHT22;11286;45.596;5.284;2023-02-15T16:35:00;16.50;99.90
22235;DHT22;11286;45.596;5.284;2023-02-15T16:37:30;16.80;99.90
22235;DHT22;11286;45.596;5.284;2023-02-15T16:39:57;16.80;99.90
22235;DHT22;11286;45.596;5.284;2023-02-15T16:42:24;16.70;99.90
22235;DHT22;11286;45.596;5.284;2023-02-15T16:45:13;16.60;99.90
22235;DHT22;11286;45.596;5.284;2023-02-15T16:47:46;16.50;99.90
22235;DHT22;11286;45.596;5.284;2023-02-15T16:50:24;16.40;99.90
22235;DHT22;11286;45.596;5.284;2023-02-15T16:52:52;16.10;99.90
22235;DHT22;11286;45.596;5.284;2023-02-15T16:55:23;15.80;99.90
22235;DHT22;11286;45.596;5.284;2023-02-15T16:57:50;15.50;99.90
22235;DHT22;11286;45.596;5.284;2023-02-15T17:00:24;15.20;99.90
22235;DHT22;11286;45.596;5.284;2023-02-15T17:05:42;15.10;99.90
22235;DHT22;11286;45.596;5.284;2023-02-15T17:08:42;15.00;99.90
22235;DHT22;11286;45.596;5.284;2023-02-15T17:13:37;14.70;99.90
22235;DHT22;11286;45.596;5.284;2023-02-15T17:18:45;14.60;99.90
22235;DHT22;11286;45.596;5.284;2023-02-15T17:21:19;14.70;99.90
22235;DHT22;11286;45.596;5.284;2023-02-15T17:23:48;14.60;99.90
22235;DHT22;11286;45.596;5.284;2023-02-15T17:26:21;14.40;99.90
22235;DHT22;11286;45.596;5.284;2023-02-15T17:28:52;14.30;99.90
22235;DHT22;11286;45.596;5.284;2023-02-15T17:31:20;14.20;99.90
22235;DHT22;11286;45.596;5.284;2023-02-15T17:33:47;14.10;99.90
22235;DHT22;11286;45.596;5.284;2023-02-15T17:36:24;13.90;99.90
22235;DHT22;11286;45.596;5.284;2023-02-15T17:41:29;13.90;99.90
22235;DHT22;11286;45.596;5.284;2023-02-15T17:43:55;13.90;99.90
22235;DHT22;11286;45.596;5.284;2023-02-15T17:46:21;13.70;99.90
22235;DHT22;11286;45.596;5.284;2023-02-15T17:48:49;13.80;99.90
22235;DHT22;11286;45.596;5.284;2023-02-15T17:51:16;13.70;99.90
22235;DHT22;11286;45.596;5.284;2023-02-15T17:53:43;13.60;99.90
22235;DHT22;11286;45.596;5.284;2023-02-15T17:56:29;13.60;99.90
22235;DHT22;11286;45.596;5.284;2023-02-15T17:58:54;13.60;99.90
22235;DHT22;11286;45.596;5.284;2023-02-15T18:01:20;13.50;99.90
22235;DHT22;11286;45.596;5.284;2023-02-15T18:04:08;13.40;99.90
22235;DHT22;11286;45.596;5.284;2023-02-15T18:06:55;13.30;99.90
22235;DHT22;11286;45.596;5.284;2023-02-15T18:09:39;13.30;99.90
22235;DHT22;11286;45.596;5.284;2023-02-15T18:12:29;13.40;99.90
22235;DHT22;11286;45.596;5.284;2023-02-15T18:14:56;13.40;99.90
22235;DHT22;11286;45.596;5.284;2023-02-15T18:17:34;13.30;99.90
22235;DHT22;11286;45.596;5.284;2023-02-15T18:20:03;13.40;99.90
22235;DHT22;11286;45.596;5.284;2023-02-15T18:22:30;13.30;99.90
22235;DHT22;11286;45.596;5.284;2023-02-15T18:24:56;13.20;99.90
22235;DHT22;11286;45.596;5.284;2023-02-15T18:27:22;13.00;99.90
22235;DHT22;11286;45.596;5.284;2023-02-15T18:29:48;12.90;99.90
22235;DHT22;11286;45.596;5.284;2023-02-15T18:32:21;12.80;99.90
22235;DHT22;11286;45.596;5.284;2023-02-15T18:34:47;12.70;99.90
22235;DHT22;11286;45.596;5.284;2023-02-15T18:37:17;12.50;99.90
22235;DHT22;11286;45.596;5.284;2023-02-15T18:39:48;12.30;99.90
22235;DHT22;11286;45.596;5.284;2023-02-15T18:44:47;12.50;99.90
22235;DHT22;11286;45.596;5.284;2023-02-15T18:47:13;12.40;99.90
22235;DHT22;11286;45.596;5.284;2023-02-15T18:49:38;12.40;99.90
22235;DHT22;11286;45.596;5.284;2023-02-15T18:52:04;12.20;99.90
22235;DHT22;11286;45.596;5.284;2023-02-15T18:54:30;12.20;99.90
22235;DHT22;11286;45.596;5.284;2023-02-15T18:56:57;12.20;99.90
22235;DHT22;11286;45.596;5.284;2023-02-15T18:59:26;12.20;99.90
22235;DHT22;11286;45.596;5.284;2023-02-15T19:01:52;12.20;99.90
22235;DHT22;11286;45.596;5.284;2023-02-15T19:04:19;12.20;99.90
22235;DHT22;11286;45.596;5.284;2023-02-15T19:06:46;12.20;99.90